Time;durP1;ratioP1;P1;durP2;ratioP2;P2;SDS_P1;SDS_P2;PMS_P1;PMS_P2;Temp;Humidity;BMP_temperature;BMP_pressure;BME280_temperature;BME280_humidity;BME280_pressure;Samples;Min_cycle;Max_cycle;Signal;HPM_P1;HPM_P2
2022/10/25 00:01:45;;;;;;;5.85;1.17;;;14.10;88.00;;;;;;5062605;28;20413;-59
2022/10/25 00:04:17;;;;;;;4.45;1.15;;;14.10;88.00;;;;;;5062378;28;20051;-60
2022/10/25 00:06:45;;;;;;;4.70;1.00;;;14.00;88.00;;;;;;5066806;28;20048;-61
2022/10/25 00:09:12;;;;;;;5.85;1.10;;;14.00;87.80;;;;;;5060974;28;20056;-60
2022/10/25 00:11:39;;;;;;;3.50;0.75;;;14.10;87.90;;;;;;5065790;28;20047;-61
2022/10/25 00:14:07;;;;;;;4.32;0.90;;;14.10;87.70;;;;;;5062618;28;20102;-59
2022/10/25 00:16:37;;;;;;;2.50;0.77;;;14.10;87.70;;;;;;5062881;28;20048;-62
2022/10/25 00:19:05;;;;;;;3.80;0.90;;;14.10;87.60;;;;;;5068480;28;20195;-60
2022/10/25 00:21:32;;;;;;;2.25;0.70;;;14.10;87.50;;;;;;5064771;28;20071;-60
2022/10/25 00:24:00;;;;;;;3.58;0.70;;;14.00;87.40;;;;;;5066799;28;20048;-60
2022/10/25 00:26:27;;;;;;;4.50;1.05;;;13.90;87.60;;;;;;5059067;28;20045;-61
2022/10/25 00:28:55;;;;;;;2.58;0.70;;;13.90;87.50;;;;;;5066421;28;20071;-61
2022/10/25 00:31:23;;;;;;;6.32;0.88;;;13.90;87.50;;;;;;5057681;28;20049;-59
2022/10/25 00:33:50;;;;;;;2.60;0.77;;;13.90;87.70;;;;;;5066298;28;20387;-61
2022/10/25 00:36:18;;;;;;;2.92;0.70;;;13.90;87.60;;;;;;5064370;28;20045;-60
2022/10/25 00:38:45;;;;;;;3.75;0.70;;;13.90;87.60;;;;;;5063024;28;20048;-63
2022/10/25 00:41:15;;;;;;;2.75;0.50;;;13.90;87.60;;;;;;5060020;28;20049;-60
2022/10/25 00:43:43;;;;;;;5.57;1.05;;;13.90;87.70;;;;;;5059356;28;20052;-61
2022/10/25 00:46:18;;;;;;;5.50;1.10;;;13.90;87.80;;;;;;5063880;28;20048;-59
2022/10/25 00:48:53;;;;;;;4.68;0.70;;;13.90;87.80;;;;;;5063840;28;20394;-60
2022/10/25 00:51:24;;;;;;;5.57;1.08;;;13.90;87.90;;;;;;5061230;28;20065;-59
2022/10/25 00:53:51;;;;;;;2.95;0.70;;;13.90;87.90;;;;;;5064297;28;20040;-60
2022/10/25 00:56:23;;;;;;;4.28;0.90;;;13.90;87.80;;;;;;5070407;28;20064;-60
2022/10/25 00:58:53;;;;;;;2.90;0.60;;;14.00;87.90;;;;;;5064266;28;20036;-60
2022/10/25 01:01:21;;;;;;;4.53;0.80;;;13.90;88.00;;;;;;5064844;28;20045;-59
2022/10/25 01:03:50;;;;;;;4.85;1.02;;;13.90;88.00;;;;;;5061796;28;20063;-61
2022/10/25 01:06:23;;;;;;;3.13;0.88;;;13.90;88.00;;;;;;5067327;28;20426;-61
2022/10/25 01:08:51;;;;;;;2.95;0.60;;;14.00;88.10;;;;;;5070269;28;20036;-60
2022/10/25 01:11:20;;;;;;;2.15;0.70;;;14.00;88.00;;;;;;5067776;28;20072;-61
2022/10/25 01:13:48;;;;;;;3.20;0.75;;;14.00;88.00;;;;;;5067421;28;20074;-60
2022/10/25 01:16:21;;;;;;;3.60;1.05;;;13.90;88.00;;;;;;5064676;28;20055;-60
2022/10/25 01:18:56;;;;;;;3.25;0.40;;;14.00;87.90;;;;;;5063031;28;20045;-60
2022/10/25 01:21:56;;;;;;;3.88;0.73;;;14.00;88.00;;;;;;5064716;28;20128;-59
2022/10/25 01:25:06;;;;;;;3.97;0.60;;;13.90;87.90;;;;;;5026662;28;20049;-60
2022/10/25 01:27:52;;;;;;;1.75;0.70;;;13.90;87.90;;;;;;5065544;28;20550;-59
2022/10/25 01:30:21;;;;;;;2.65;0.57;;;13.90;88.00;;;;;;5066113;28;20561;-62
2022/10/25 01:33:04;;;;;;;2.25;0.80;;;13.90;87.90;;;;;;5069041;28;20057;-60
2022/10/25 01:35:35;;;;;;;3.00;0.68;;;13.90;87.80;;;;;;5062869;28;20059;-60
2022/10/25 01:38:15;;;;;;;1.98;0.55;;;13.80;87.90;;;;;;5068477;28;20118;-61
2022/10/25 01:40:48;;;;;;;3.77;0.70;;;13.80;87.80;;;;;;5068891;28;20055;-60
2022/10/25 01:43:27;;;;;;;2.30;0.70;;;13.70;87.70;;;;;;5066113;28;20422;-62
2022/10/25 01:46:01;;;;;;;4.40;0.80;;;13.70;87.70;;;;;;5067759;28;20418;-60
2022/10/25 01:48:34;;;;;;;3.17;0.75;;;13.70;87.80;;;;;;5067045;28;20475;-59
2022/10/25 01:51:08;;;;;;;2.65;0.75;;;13.70;87.80;;;;;;5063360;28;20140;-61
2022/10/25 01:53:44;;;;;;;4.07;0.93;;;13.80;87.90;;;;;;5063876;28;20049;-62
2022/10/25 01:56:14;;;;;;;4.03;0.90;;;13.70;88.00;;;;;;5070382;28;20044;-61
2022/10/25 01:58:45;;;;;;;;;;;13.80;88.00;;;;;;5066331;28;20047;-62
2022/10/25 02:01:32;;;;;;;3.47;0.80;;;13.80;88.00;;;;;;5057220;28;19924;-59
2022/10/25 02:04:06;;;;;;;2.30;0.47;;;13.80;88.00;;;;;;5061663;28;20044;-64
2022/10/25 02:06:44;;;;;;;2.70;0.60;;;13.80;87.90;;;;;;5071111;28;20052;-58
2022/10/25 02:09:19;;;;;;;1.73;0.63;;;13.80;88.00;;;;;;5064780;28;20052;-60
2022/10/25 02:11:49;;;;;;;2.78;0.73;;;13.80;87.90;;;;;;5065864;28;20041;-60
2022/10/25 02:14:22;;;;;;;1.48;0.50;;;13.80;88.00;;;;;;5072997;28;20106;-60
2022/10/25 02:16:53;;;;;;;3.63;0.80;;;13.80;88.00;;;;;;5061596;28;20392;-60
2022/10/25 02:19:28;;;;;;;3.90;0.55;;;13.80;88.00;;;;;;5061463;28;20041;-60
2022/10/25 02:21:57;;;;;;;3.50;0.60;;;13.80;87.90;;;;;;5063354;28;20048;-63
2022/10/25 02:24:25;;;;;;;2.35;0.63;;;13.90;87.90;;;;;;5064762;28;20052;-60
2022/10/25 02:26:53;;;;;;;4.65;0.70;;;13.80;87.90;;;;;;5061835;28;20269;-60
2022/10/25 02:29:22;;;;;;;2.15;0.43;;;13.80;88.00;;;;;;5061280;28;20109;-61
2022/10/25 02:31:50;;;;;;;4.33;1.00;;;13.80;88.10;;;;;;5066033;28;20491;-60
2022/10/25 02:34:17;;;;;;;5.93;0.77;;;13.80;88.00;;;;;;5063284;28;20483;-61
2022/10/25 02:36:48;;;;;;;3.22;0.60;;;13.90;87.80;;;;;;5067428;28;20044;-60
2022/10/25 02:39:15;;;;;;;2.40;0.45;;;13.90;87.80;;;;;;5063814;28;20509;-60
2022/10/25 02:45:39;;;;;;;2.28;0.60;;;13.90;87.80;;;;;;5063436;28;20136;-60
2022/10/25 02:48:12;;;;;;;2.58;0.70;;;13.90;87.80;;;;;;5067209;28;20105;-60
2022/10/25 02:50:39;;;;;;;1.58;0.55;;;13.90;87.80;;;;;;5066535;28;20048;-61
2022/10/25 02:53:07;;;;;;;0.93;0.43;;;13.90;87.70;;;;;;5058995;28;20059;-61
2022/10/25 02:55:34;;;;;;;3.45;0.70;;;13.90;87.70;;;;;;5065085;28;20051;-60
2022/10/25 02:58:01;;;;;;;1.88;0.68;;;13.90;87.70;;;;;;5070190;28;20509;-61
2022/10/25 03:00:28;;;;;;;3.85;0.98;;;13.90;87.60;;;;;;5061593;28;20041;-60
2022/10/25 03:02:55;;;;;;;3.00;0.70;;;14.00;87.60;;;;;;5066660;28;20040;-61
2022/10/25 03:05:22;;;;;;;1.52;0.60;;;13.90;87.50;;;;;;5063956;28;20095;-61
2022/10/25 03:07:49;;;;;;;4.18;0.50;;;13.90;87.50;;;;;;5068116;28;20105;-60
2022/10/25 03:10:17;;;;;;;4.70;0.70;;;13.90;87.50;;;;;;5063379;28;20049;-59
2022/10/25 03:12:44;;;;;;;1.55;0.50;;;13.90;87.50;;;;;;5058814;28;20391;-60
2022/10/25 03:15:11;;;;;;;2.85;0.57;;;13.90;87.50;;;;;;5064303;28;20045;-60
2022/10/25 03:17:37;;;;;;;3.03;0.70;;;13.90;87.40;;;;;;5066169;28;20036;-59
2022/10/25 03:20:05;;;;;;;2.63;0.77;;;13.90;87.50;;;;;;5059750;28;20041;-59
2022/10/25 03:22:32;;;;;;;3.53;0.65;;;13.90;87.50;;;;;;5066670;28;20127;-60
2022/10/25 03:25:00;;;;;;;2.67;0.70;;;13.90;87.40;;;;;;5060505;28;20045;-60
2022/10/25 03:27:29;;;;;;;4.20;0.90;;;13.90;87.40;;;;;;5063424;28;20044;-60
2022/10/25 03:29:56;;;;;;;3.55;0.70;;;13.90;87.40;;;;;;5061590;28;20051;-61
2022/10/25 03:32:23;;;;;;;2.40;0.73;;;13.90;87.40;;;;;;5058801;28;20052;-59
2022/10/25 03:34:49;;;;;;;1.33;0.60;;;13.90;87.40;;;;;;5059517;28;20059;-61
2022/10/25 03:37:16;;;;;;;1.75;0.60;;;13.90;87.40;;;;;;5063494;28;20076;-60
2022/10/25 03:39:43;;;;;;;4.10;0.55;;;13.80;87.40;;;;;;5055403;28;20052;-59
2022/10/25 03:42:10;;;;;;;3.45;0.70;;;13.90;87.50;;;;;;5063118;28;20127;-60
2022/10/25 03:44:38;;;;;;;5.20;0.80;;;13.90;87.50;;;;;;5063230;28;20041;-60
2022/10/25 03:47:05;;;;;;;5.18;0.90;;;13.90;87.40;;;;;;5052183;28;20044;-60
2022/10/25 03:49:32;;;;;;;4.70;0.70;;;13.90;87.30;;;;;;5057812;28;20256;-61
2022/10/25 03:51:59;;;;;;;3.47;1.00;;;13.90;87.40;;;;;;5063825;28;20057;-61
2022/10/25 03:54:26;;;;;;;6.70;0.90;;;13.80;87.40;;;;;;5062121;28;20044;-60
2022/10/25 03:56:52;;;;;;;1.75;0.65;;;13.80;87.40;;;;;;5061734;28;20048;-60
2022/10/25 03:59:19;;;;;;;2.72;0.70;;;13.80;87.30;;;;;;5064517;28;20051;-60
2022/10/25 04:01:47;;;;;;;2.75;0.77;;;13.80;87.30;;;;;;5063404;28;20037;-60
2022/10/25 04:04:14;;;;;;;2.85;0.40;;;13.70;87.30;;;;;;5061308;28;20079;-60
2022/10/25 04:06:41;;;;;;;3.78;0.80;;;13.80;87.30;;;;;;5060577;28;20064;-59
2022/10/25 04:09:08;;;;;;;3.63;0.60;;;13.70;87.30;;;;;;5061453;28;20493;-61
2022/10/25 04:11:38;;;;;;;3.97;0.80;;;13.70;87.30;;;;;;5064106;28;20037;-60
2022/10/25 04:14:05;;;;;;;4.22;0.70;;;13.70;87.30;;;;;;5062049;28;20056;-60
2022/10/25 04:16:32;;;;;;;3.05;0.85;;;13.70;87.40;;;;;;5060228;28;20532;-61
2022/10/25 04:19:06;;;;;;;2.25;0.50;;;13.60;87.40;;;;;;5060189;28;20041;-61
2022/10/25 04:21:35;;;;;;;2.67;0.60;;;13.70;87.40;;;;;;5057491;28;20045;-60
2022/10/25 04:24:05;;;;;;;2.10;0.63;;;13.70;87.40;;;;;;5062475;28;20045;-60
2022/10/25 04:26:36;;;;;;;3.70;0.57;;;13.70;87.40;;;;;;5060196;28;20043;-59
2022/10/25 04:29:05;;;;;;;2.60;0.65;;;13.70;87.40;;;;;;5058110;28;20037;-60
2022/10/25 04:31:32;;;;;;;2.30;0.68;;;13.70;87.40;;;;;;5064319;28;20045;-60
2022/10/25 04:34:00;;;;;;;1.42;0.85;;;13.70;87.50;;;;;;5057638;28;20064;-61
2022/10/25 04:36:28;;;;;;;3.17;0.70;;;13.60;87.60;;;;;;5060506;28;20045;-60
2022/10/25 04:38:55;;;;;;;3.00;0.63;;;13.60;87.70;;;;;;5058691;28;20044;-60
2022/10/25 04:41:23;;;;;;;2.45;0.65;;;13.60;87.70;;;;;;5066516;28;20055;-61
2022/10/25 04:43:51;;;;;;;3.95;0.80;;;13.60;87.80;;;;;;5057383;28;20037;-59
2022/10/25 04:46:19;;;;;;;3.65;0.63;;;13.60;87.70;;;;;;5063960;28;20049;-61
2022/10/25 04:48:46;;;;;;;2.85;0.68;;;13.60;87.70;;;;;;5069421;28;20041;-60
2022/10/25 04:51:15;;;;;;;2.97;0.70;;;13.60;87.70;;;;;;5067733;28;20066;-60
2022/10/25 04:53:42;;;;;;;4.47;1.00;;;13.60;87.80;;;;;;5062653;28;20044;-60
2022/10/25 04:56:11;;;;;;;3.08;0.93;;;13.60;87.80;;;;;;5064308;28;20045;-60
2022/10/25 04:58:38;;;;;;;5.18;0.80;;;13.60;87.70;;;;;;5060152;28;20032;-61
2022/10/25 05:01:07;;;;;;;2.13;0.52;;;13.60;87.80;;;;;;5060985;28;20044;-60
2022/10/25 05:03:35;;;;;;;3.25;0.50;;;13.60;87.80;;;;;;5061076;28;20048;-60
2022/10/25 05:06:09;;;;;;;4.80;0.80;;;13.60;87.90;;;;;;5059568;28;20041;-60
2022/10/25 05:08:40;;;;;;;4.75;0.73;;;13.50;87.90;;;;;;5058831;28;20044;-60
2022/10/25 05:11:07;;;;;;;7.05;0.88;;;13.50;87.90;;;;;;5069122;28;20053;-61
2022/10/25 05:13:36;;;;;;;3.22;0.60;;;13.50;87.90;;;;;;5060701;28;20048;-60
2022/10/25 05:16:03;;;;;;;2.75;0.75;;;13.50;87.90;;;;;;5063421;28;20498;-60
2022/10/25 05:18:30;;;;;;;3.10;0.60;;;13.50;87.90;;;;;;5064968;28;20048;-61
2022/10/25 05:21:02;;;;;;;3.03;0.80;;;13.60;87.90;;;;;;5061899;28;20052;-60
2022/10/25 05:23:30;;;;;;;3.75;0.65;;;13.60;87.80;;;;;;5063247;28;20052;-61
2022/10/25 05:26:03;;;;;;;3.42;0.88;;;13.60;87.90;;;;;;5064846;28;20040;-60
2022/10/25 05:28:30;;;;;;;2.60;0.70;;;13.50;87.90;;;;;;5063305;28;20053;-60
2022/10/25 05:30:57;;;;;;;3.75;0.68;;;13.50;88.00;;;;;;5062913;28;20053;-60
2022/10/25 05:33:24;;;;;;;2.55;0.88;;;13.50;88.00;;;;;;5063687;28;20494;-61
2022/10/25 05:35:51;;;;;;;3.60;0.80;;;13.50;88.00;;;;;;5064085;28;20086;-60
2022/10/25 05:38:17;;;;;;;4.03;1.23;;;13.60;88.00;;;;;;5061958;28;20056;-61
2022/10/25 05:40:51;;;;;;;2.95;0.80;;;13.50;88.10;;;;;;5059555;28;20045;-61
2022/10/25 05:43:20;;;;;;;6.30;0.80;;;13.60;88.10;;;;;;5064036;28;20418;-60
2022/10/25 05:45:46;;;;;;;5.00;0.93;;;13.60;88.10;;;;;;5065453;28;20529;-61
2022/10/25 05:48:13;;;;;;;4.35;0.65;;;13.60;88.10;;;;;;5065102;28;20047;-61
2022/10/25 05:50:40;;;;;;;2.03;0.73;;;13.60;88.10;;;;;;5065403;28;20430;-61
2022/10/25 05:53:07;;;;;;;2.72;0.77;;;13.60;88.10;;;;;;5061282;28;20041;-60
2022/10/25 05:55:34;;;;;;;3.00;0.90;;;13.60;88.10;;;;;;5068353;28;20045;-60
2022/10/25 05:58:01;;;;;;;2.80;0.75;;;13.60;88.10;;;;;;5061870;28;20044;-61
2022/10/25 06:00:29;;;;;;;5.90;0.95;;;13.60;88.10;;;;;;5066126;28;20037;-61
2022/10/25 06:03:00;;;;;;;3.40;0.80;;;13.60;88.20;;;;;;5069639;28;20052;-60
2022/10/25 06:05:27;;;;;;;3.30;0.80;;;13.60;88.20;;;;;;5060499;28;20048;-59
2022/10/25 06:07:53;;;;;;;1.90;0.63;;;13.60;88.20;;;;;;5063203;28;20048;-61
2022/10/25 06:10:20;;;;;;;3.25;1.10;;;13.60;88.20;;;;;;5064602;28;20041;-60
2022/10/25 06:12:47;;;;;;;3.53;1.00;;;13.60;88.20;;;;;;5072154;28;20038;-60
2022/10/25 06:15:14;;;;;;;2.05;0.80;;;13.60;88.20;;;;;;5064634;28;20044;-59
2022/10/25 06:17:42;;;;;;;5.22;0.90;;;13.60;88.10;;;;;;5063611;28;20040;-61
2022/10/25 06:20:10;;;;;;;4.38;0.88;;;13.60;88.10;;;;;;5067583;28;20218;-60
2022/10/25 06:22:36;;;;;;;2.33;0.80;;;13.60;88.10;;;;;;5059525;28;20048;-60
2022/10/25 06:25:04;;;;;;;3.85;0.80;;;13.60;88.00;;;;;;5060835;28;20045;-61
2022/10/25 06:27:31;;;;;;;5.75;1.15;;;13.70;88.00;;;;;;5068074;28;20041;-60
2022/10/25 06:29:58;;;;;;;1.98;0.80;;;13.70;88.10;;;;;;5065842;28;20041;-60
2022/10/25 06:32:24;;;;;;;3.45;1.30;;;13.60;88.10;;;;;;5063158;28;20037;-61
2022/10/25 06:34:52;;;;;;;3.45;0.90;;;13.70;88.10;;;;;;5063427;28;20056;-59
2022/10/25 06:37:19;;;;;;;4.97;1.13;;;13.70;88.10;;;;;;5068695;28;20044;-60
2022/10/25 06:39:46;;;;;;;2.88;0.93;;;13.70;88.10;;;;;;5065318;28;20048;-60
2022/10/25 06:42:13;;;;;;;4.10;1.00;;;13.70;88.10;;;;;;5060736;28;20049;-60
2022/10/25 06:44:41;;;;;;;4.22;0.88;;;13.70;88.20;;;;;;5065509;28;20464;-60
2022/10/25 06:47:08;;;;;;;8.25;1.23;;;13.70;88.20;;;;;;5063192;28;20135;-60
2022/10/25 06:49:34;;;;;;;3.13;0.80;;;13.70;88.20;;;;;;5061219;28;20049;-61
2022/10/25 06:52:03;;;;;;;3.15;0.90;;;13.70;88.10;;;;;;5064415;28;20112;-60
2022/10/25 06:54:29;;;;;;;3.95;1.10;;;13.70;88.10;;;;;;5065613;28;20059;-61
2022/10/25 06:56:58;;;;;;;3.83;0.93;;;13.70;88.10;;;;;;5064127;28;20041;-61
2022/10/25 06:59:25;;;;;;;5.10;1.25;;;13.70;88.10;;;;;;5059230;28;20045;-61
2022/10/25 07:01:52;;;;;;;4.07;1.15;;;13.70;88.00;;;;;;5064519;28;20050;-61
2022/10/25 07:04:19;;;;;;;4.22;1.00;;;13.70;88.00;;;;;;5062841;28;20057;-60
2022/10/25 07:06:48;;;;;;;2.67;1.23;;;13.70;88.00;;;;;;5059578;28;20123;-60
2022/10/25 07:09:16;;;;;;;3.90;1.13;;;13.70;87.90;;;;;;5067237;28;20444;-60
2022/10/25 07:11:44;;;;;;;2.92;1.15;;;13.70;88.10;;;;;;5067513;28;20057;-59
2022/10/25 07:14:11;;;;;;;3.42;0.88;;;13.80;88.10;;;;;;5064249;28;20045;-59
2022/10/25 07:16:38;;;;;;;4.05;1.00;;;13.80;88.20;;;;;;5059760;28;20180;-61
2022/10/25 07:19:05;;;;;;;3.50;1.15;;;13.80;88.10;;;;;;5060239;28;20036;-60
2022/10/25 07:21:33;;;;;;;3.70;1.40;;;13.80;88.20;;;;;;5063012;28;20048;-59
2022/10/25 07:24:00;;;;;;;3.13;1.02;;;13.80;88.10;;;;;;5066458;28;20045;-61
2022/10/25 07:26:31;;;;;;;2.85;0.98;;;13.90;88.00;;;;;;5056484;28;20048;-61
2022/10/25 07:28:59;;;;;;;;;;;13.80;88.00;;;;;;5062586;28;20040;-60
2022/10/25 07:31:28;;;;;;;2.67;0.95;;;13.80;88.10;;;;;;5061586;28;19924;-60
2022/10/25 07:33:58;;;;;;;3.38;0.73;;;13.90;88.20;;;;;;5057551;28;20132;-60
2022/10/25 07:36:25;;;;;;;3.83;1.48;;;13.90;88.20;;;;;;5055915;28;20037;-61
2022/10/25 07:38:52;;;;;;;2.95;0.80;;;13.90;88.30;;;;;;5061910;28;20048;-59
2022/10/25 07:41:19;;;;;;;3.58;1.10;;;13.90;88.30;;;;;;5066716;28;20048;-59
2022/10/25 07:43:47;;;;;;;3.58;0.98;;;13.90;88.20;;;;;;5057667;28;20040;-61
2022/10/25 07:46:14;;;;;;;2.45;0.88;;;13.90;88.20;;;;;;5055615;28;20049;-60
2022/10/25 07:48:41;;;;;;;4.88;1.40;;;13.90;88.20;;;;;;5061410;28;20041;-60
2022/10/25 07:51:10;;;;;;;4.32;1.50;;;13.90;88.10;;;;;;5060475;28;20047;-59
2022/10/25 07:53:37;;;;;;;6.47;2.10;;;13.90;88.20;;;;;;5066214;28;20074;-59
2022/10/25 07:56:05;;;;;;;5.40;1.67;;;13.90;88.20;;;;;;5066109;28;20063;-61
2022/10/25 07:58:32;;;;;;;4.53;1.30;;;13.90;88.20;;;;;;5062924;28;20478;-59
2022/10/25 08:01:05;;;;;;;6.18;1.85;;;13.90;88.20;;;;;;5064112;28;20078;-61
2022/10/25 08:03:32;;;;;;;6.30;1.65;;;13.90;88.20;;;;;;5060686;28;20045;-61
2022/10/25 08:05:59;;;;;;;10.25;1.65;;;14.00;88.10;;;;;;5059089;28;20056;-59
2022/10/25 08:08:27;;;;;;;7.90;2.00;;;14.00;88.10;;;;;;5067962;28;20079;-60
2022/10/25 08:10:54;;;;;;;6.25;2.00;;;14.10;88.20;;;;;;5064505;28;20055;-59
2022/10/25 08:13:22;;;;;;;6.10;1.73;;;14.10;88.10;;;;;;5060948;28;20165;-60
2022/10/25 08:15:50;;;;;;;8.00;1.70;;;14.10;88.20;;;;;;5059346;28;20044;-60
2022/10/25 08:18:19;;;;;;;5.07;1.70;;;14.10;88.20;;;;;;5068968;28;20044;-59
2022/10/25 08:20:46;;;;;;;5.65;1.25;;;14.10;88.10;;;;;;5065080;28;20048;-60
2022/10/25 08:23:13;;;;;;;6.40;1.52;;;14.10;88.00;;;;;;5058915;28;20052;-61
2022/10/25 08:25:40;;;;;;;6.22;1.50;;;14.20;88.10;;;;;;5063604;28;20048;-60
2022/10/25 08:28:07;;;;;;;6.22;1.27;;;14.10;88.00;;;;;;5066212;28;20535;-61
2022/10/25 08:30:34;;;;;;;3.50;1.30;;;14.20;88.00;;;;;;5061677;28;20049;-59
2022/10/25 08:33:01;;;;;;;4.53;1.40;;;14.20;88.10;;;;;;5062243;28;20040;-60
2022/10/25 08:35:29;;;;;;;4.25;1.70;;;14.20;88.10;;;;;;5062645;28;20039;-60
2022/10/25 08:37:59;;;;;;;7.93;1.42;;;14.20;88.00;;;;;;5061386;28;20119;-60
2022/10/25 08:40:42;;;;;;;7.85;1.45;;;14.20;88.10;;;;;;5057079;28;20501;-59
2022/10/25 08:43:27;;;;;;;5.43;1.10;;;14.20;87.80;;;;;;5060642;28;20041;-60
2022/10/25 08:45:56;;;;;;;5.10;1.48;;;14.20;88.00;;;;;;5059548;28;20045;-61
2022/10/25 08:48:28;;;;;;;4.28;1.23;;;14.20;87.90;;;;;;5062427;28;20045;-60
2022/10/25 08:51:03;;;;;;;3.65;0.98;;;14.20;87.90;;;;;;5059849;28;20409;-60
2022/10/25 08:53:37;;;;;;;5.47;1.40;;;14.20;88.00;;;;;;5063194;28;20051;-59
2022/10/25 08:56:07;;;;;;;5.35;1.25;;;14.30;87.80;;;;;;5059595;28;20059;-60
2022/10/25 08:58:37;;;;;;;6.93;1.48;;;14.40;87.90;;;;;;5066512;28;20128;-60
2022/10/25 09:01:14;;;;;;;7.57;1.40;;;14.40;87.80;;;;;;5057525;28;20044;-59
2022/10/25 09:03:41;;;;;;;3.88;1.50;;;14.50;87.70;;;;;;5056467;28;20056;-61
2022/10/25 09:06:21;;;;;;;3.22;1.55;;;14.60;87.70;;;;;;5063326;28;20049;-60
2022/10/25 09:09:03;;;;;;;10.02;2.03;;;14.60;87.50;;;;;;5056460;28;20041;-61
2022/10/25 09:11:43;;;;;;;6.57;1.60;;;14.60;87.50;;;;;;5066928;28;20048;-60
2022/10/25 09:14:15;;;;;;;5.45;1.33;;;14.60;87.50;;;;;;5061635;28;20128;-61
2022/10/25 09:16:50;;;;;;;3.65;1.40;;;14.70;87.40;;;;;;5066058;28;20098;-61
2022/10/25 09:19:22;;;;;;;3.63;1.40;;;14.70;87.40;;;;;;5064286;28;20055;-59
2022/10/25 09:21:52;;;;;;;4.82;1.40;;;14.70;87.30;;;;;;5064231;28;20131;-60
2022/10/25 09:24:22;;;;;;;5.72;1.65;;;14.70;87.20;;;;;;5066809;28;20032;-60
2022/10/25 09:26:59;;;;;;;9.07;2.08;;;14.80;87.20;;;;;;5067990;28;20040;-59
2022/10/25 09:29:30;;;;;;;6.07;1.50;;;14.80;87.20;;;;;;5064920;28;20255;-59
2022/10/25 09:31:59;;;;;;;6.22;1.75;;;14.90;87.20;;;;;;5060678;28;20616;-60
2022/10/25 09:34:31;;;;;;;5.88;1.52;;;14.90;87.10;;;;;;5059830;28;20049;-61
2022/10/25 09:37:09;;;;;;;3.42;1.40;;;14.90;87.20;;;;;;5064131;28;20041;-60
2022/10/25 09:39:40;;;;;;;4.30;1.40;;;14.90;87.10;;;;;;5065795;28;20048;-59
2022/10/25 09:42:17;;;;;;;7.68;1.63;;;14.90;87.10;;;;;;5061159;28;20055;-60
2022/10/25 09:44:48;;;;;;;6.40;1.52;;;15.00;87.00;;;;;;5067563;28;20056;-59
2022/10/25 09:47:25;;;;;;;3.15;1.30;;;15.00;87.00;;;;;;5064341;28;20048;-60
2022/10/25 09:49:58;;;;;;;3.92;1.42;;;15.00;87.00;;;;;;5061811;28;20048;-60
2022/10/25 09:52:33;;;;;;;4.32;1.25;;;15.10;86.90;;;;;;5061861;28;20048;-60
2022/10/25 09:55:13;;;;;;;7.03;1.80;;;15.10;86.90;;;;;;5058726;28;20514;-59
2022/10/25 09:57:40;;;;;;;5.78;1.50;;;15.10;86.90;;;;;;5064446;28;20187;-60
2022/10/25 10:00:12;;;;;;;6.65;1.85;;;15.10;86.90;;;;;;5067723;28;20556;-60
2022/10/25 10:02:39;;;;;;;6.50;1.65;;;15.10;86.90;;;;;;5066022;28;20140;-60
2022/10/25 10:05:14;;;;;;;8.30;2.60;;;15.20;86.90;;;;;;5066080;28;20049;-58
2022/10/25 10:07:42;;;;;;;6.75;2.92;;;15.20;86.90;;;;;;5060725;28;21289;-59
2022/10/25 10:10:13;;;;;;;4.18;1.73;;;15.20;86.90;;;;;;5069405;28;20071;-60
2022/10/25 10:12:46;;;;;;;6.55;1.90;;;15.20;86.90;;;;;;5073959;28;20052;-61
2022/10/25 10:15:19;;;;;;;4.03;1.67;;;15.20;86.90;;;;;;5069544;28;20502;-60
2022/10/25 10:17:45;;;;;;;3.75;1.58;;;15.20;86.80;;;;;;5067485;28;20056;-60
2022/10/25 10:20:15;;;;;;;4.30;1.60;;;15.20;86.90;;;;;;5059764;28;20045;-60
2022/10/25 10:22:50;;;;;;;4.32;1.60;;;15.30;86.80;;;;;;5065729;28;20088;-60
2022/10/25 10:25:21;;;;;;;3.72;1.42;;;15.30;86.80;;;;;;5063090;28;20053;-60
2022/10/25 10:27:52;;;;;;;6.65;1.70;;;15.30;86.80;;;;;;5060255;28;20045;-59
2022/10/25 10:30:23;;;;;;;6.30;1.52;;;15.40;86.80;;;;;;5062096;28;20045;-60
2022/10/25 10:32:54;;;;;;;5.22;1.83;;;15.40;86.60;;;;;;5061736;28;20040;-60
2022/10/25 10:35:28;;;;;;;5.07;1.45;;;15.40;86.60;;;;;;5059415;28;20122;-59
2022/10/25 10:38:21;;;;;;;3.85;1.30;;;15.50;86.50;;;;;;5063151;28;20398;-59
2022/10/25 10:40:48;;;;;;;6.45;1.40;;;15.60;86.40;;;;;;5062046;28;20056;-59
2022/10/25 10:43:28;;;;;;;10.55;1.65;;;15.60;86.30;;;;;;5064426;28;20044;-59
2022/10/25 10:46:01;;;;;;;9.52;1.75;;;15.60;86.20;;;;;;5061897;28;20477;-59
2022/10/25 10:48:39;;;;;;;7.15;1.63;;;15.60;86.20;;;;;;5064486;28;20418;-60
2022/10/25 10:51:06;;;;;;;4.68;1.30;;;15.60;86.10;;;;;;5068370;28;20047;-61
2022/10/25 10:53:34;;;;;;;5.70;1.85;;;15.70;86.00;;;;;;5061073;28;20068;-60
2022/10/25 10:56:04;;;;;;;3.30;1.20;;;15.60;86.10;;;;;;5062321;28;20406;-60
2022/10/25 10:58:34;;;;;;;4.72;1.25;;;15.70;86.00;;;;;;5066679;28;20071;-61
2022/10/25 11:01:03;;;;;;;3.33;1.40;;;15.70;85.80;;;;;;5068804;28;20494;-59
2022/10/25 11:03:46;;;;;;;3.75;1.15;;;15.70;85.60;;;;;;5052599;28;20120;-59
2022/10/25 11:06:17;;;;;;;7.63;1.38;;;15.70;85.60;;;;;;5059673;28;20140;-60
2022/10/25 11:08:47;;;;;;;6.28;1.48;;;15.80;85.50;;;;;;5058155;28;20043;-59
2022/10/25 11:11:19;;;;;;;5.35;1.45;;;15.90;85.30;;;;;;5056775;28;20044;-60
2022/10/25 11:13:53;;;;;;;6.30;1.20;;;15.90;85.20;;;;;;5066267;28;20048;-60
2022/10/25 11:16:50;;;;;;;4.13;1.30;;;15.90;84.90;;;;;;5057112;28;20056;-61
2022/10/25 11:19:54;;;;;;;2.85;1.00;;;16.00;84.90;;;;;;5062063;28;20075;-60
2022/10/25 11:22:41;;;;;;;6.20;1.27;;;16.00;84.90;;;;;;5057784;28;20048;-60
2022/10/25 11:25:21;;;;;;;4.55;1.83;;;16.00;84.50;;;;;;5056777;28;20517;-60
2022/10/25 11:28:03;;;;;;;3.83;1.10;;;16.00;84.50;;;;;;5061067;28;20402;-61
2022/10/25 11:30:37;;;;;;;3.92;1.40;;;16.10;84.40;;;;;;5061368;28;20048;-60
2022/10/25 11:33:33;;;;;;;4.03;1.20;;;16.10;84.50;;;;;;5062249;28;20045;-60
2022/10/25 11:36:12;;;;;;;3.90;1.02;;;16.10;84.50;;;;;;5059385;28;20045;-59
2022/10/25 11:38:54;;;;;;;2.42;0.88;;;16.10;84.50;;;;;;5057622;28;20473;-60
2022/10/25 11:41:32;;;;;;;3.80;1.30;;;16.10;84.40;;;;;;5064287;28;20048;-61
2022/10/25 11:44:13;;;;;;;3.92;1.15;;;16.10;84.60;;;;;;5065169;28;20044;-61
2022/10/25 11:46:48;;;;;;;4.35;1.15;;;16.20;84.40;;;;;;5067826;28;20148;-60
2022/10/25 11:49:26;;;;;;;3.53;1.10;;;16.20;84.30;;;;;;5065867;28;20055;-61
2022/10/25 11:52:09;;;;;;;4.47;1.48;;;16.20;84.30;;;;;;5065819;28;20037;-61
2022/10/25 11:54:44;;;;;;;5.45;1.20;;;16.20;84.10;;;;;;5066507;28;20053;-61
2022/10/25 11:57:22;;;;;;;3.83;0.90;;;16.20;84.20;;;;;;5062899;28;20176;-61
2022/10/25 12:00:00;;;;;;;3.92;1.20;;;16.20;84.30;;;;;;5064135;28;20049;-62
2022/10/25 12:02:42;;;;;;;2.65;1.00;;;16.20;84.30;;;;;;5066556;28;20055;-61
2022/10/25 12:05:24;;;;;;;4.93;1.27;;;16.20;84.30;;;;;;5064987;28;20139;-62
2022/10/25 12:07:58;;;;;;;3.70;1.30;;;16.20;84.20;;;;;;5067102;28;20050;-61
2022/10/25 12:10:32;;;;;;;5.43;1.02;;;16.20;84.40;;;;;;5062901;28;20049;-61
2022/10/25 12:13:03;;;;;;;4.13;1.23;;;16.20;84.10;;;;;;5059133;28;20094;-61
2022/10/25 12:15:36;;;;;;;2.55;0.88;;;16.20;84.10;;;;;;5061156;28;20048;-61
2022/10/25 12:18:05;;;;;;;3.63;1.08;;;16.20;83.90;;;;;;5065832;28;20048;-61
2022/10/25 12:20:33;;;;;;;2.35;0.88;;;16.30;84.20;;;;;;5064371;28;20049;-60
2022/10/25 12:23:03;;;;;;;3.67;0.80;;;16.30;84.00;;;;;;5067045;28;20041;-62
2022/10/25 12:25:34;;;;;;;5.93;1.05;;;16.30;84.00;;;;;;5064018;28;20349;-63
2022/10/25 12:28:10;;;;;;;3.35;1.20;;;16.30;84.00;;;;;;5069814;28;20047;-61
2022/10/25 12:30:39;;;;;;;4.65;1.40;;;16.30;83.90;;;;;;5069589;28;20055;-60
2022/10/25 12:33:15;;;;;;;2.30;0.85;;;16.30;83.80;;;;;;5059287;28;20048;-62
2022/10/25 12:35:48;;;;;;;2.75;0.90;;;16.30;83.70;;;;;;5068960;28;20063;-60
2022/10/25 12:38:20;;;;;;;4.10;0.75;;;16.30;83.70;;;;;;5068182;28;20074;-61
2022/10/25 12:40:50;;;;;;;4.47;0.90;;;16.30;83.70;;;;;;5065366;28;20052;-60
2022/10/25 12:43:24;;;;;;;6.25;1.40;;;16.30;83.70;;;;;;5060934;28;20502;-61
2022/10/25 12:46:03;;;;;;;3.00;1.27;;;16.40;83.70;;;;;;5069757;28;20383;-61
2022/10/25 12:49:07;;;;;;;2.42;0.88;;;16.40;83.50;;;;;;5069372;28;20049;-64
2022/10/25 12:51:49;;;;;;;4.70;1.10;;;16.40;83.20;;;;;;5067009;28;20044;-61
2022/10/25 12:54:43;;;;;;;3.80;1.13;;;16.40;83.00;;;;;;5073387;28;20052;-61
2022/10/25 12:57:19;;;;;;;2.55;0.80;;;16.40;83.00;;;;;;5073204;28;20048;-60
2022/10/25 13:00:08;;;;;;;6.00;1.17;;;16.50;83.00;;;;;;5073288;28;20048;-59
2022/10/25 13:03:16;;;;;;;4.45;1.10;;;16.50;83.10;;;;;;5070104;28;20492;-60
2022/10/25 13:06:07;;;;;;;2.45;1.00;;;16.50;83.20;;;;;;5069119;28;20052;-60
2022/10/25 13:08:34;;;;;;;3.42;0.80;;;16.60;82.70;;;;;;5061817;28;20048;-61
2022/10/25 13:11:04;;;;;;;6.05;0.75;;;16.60;82.70;;;;;;5068835;28;20044;-60
2022/10/25 13:13:33;;;;;;;3.05;0.60;;;16.70;82.80;;;;;;5064736;28;20490;-61